Time;durP1;ratioP1;P1;durP2;ratioP2;P2;SDS_P1;SDS_P2;PMS_P1;PMS_P2;Temp;Humidity;BMP_temperature;BMP_pressure;BME280_temperature;BME280_humidity;BME280_pressure;Samples;Min_cycle;Max_cycle;Signal;HPM_P1;HPM_P2
2023/10/11 00:00:32;;;;;;;7.10;3.85;;;;;;;20.89;55.43;101422.34;4948913;28;20530;-64
2023/10/11 00:02:59;;;;;;;7.43;3.88;;;;;;;20.89;55.25;101412.56;4942078;28;20038;-64
2023/10/11 00:05:27;;;;;;;6.65;3.90;;;;;;;20.89;54.92;101415.22;4948845;28;20385;-64
2023/10/11 00:07:57;;;;;;;6.05;3.70;;;;;;;20.89;55.27;101417.03;4949285;28;20031;-65
2023/10/11 00:10:22;;;;;;;5.88;3.60;;;;;;;20.90;55.16;101418.72;4949626;28;20442;-64
2023/10/11 00:12:50;;;;;;;8.52;4.18;;;;;;;20.87;54.95;101414.53;4948891;28;20063;-65
2023/10/11 00:15:18;;;;;;;8.55;3.92;;;;;;;20.87;55.15;101419.81;4947979;28;20031;-64
2023/10/11 00:17:46;;;;;;;6.63;3.65;;;;;;;20.88;55.06;101420.66;4948467;28;20066;-64
2023/10/11 00:20:27;;;;;;;7.75;3.92;;;;;;;20.87;55.20;101416.31;4948658;28;20055;-64
2023/10/11 00:22:53;;;;;;;5.65;3.30;;;;;;;20.86;54.96;101407.53;4941922;28;20027;-64
2023/10/11 00:25:23;;;;;;;7.45;4.00;;;;;;;20.86;55.26;101415.47;4948389;28;20037;-64
2023/10/11 00:27:52;;;;;;;7.13;3.80;;;;;;;20.86;55.04;101412.84;4947990;28;20463;-64
2023/10/11 00:30:19;;;;;;;7.05;3.97;;;;;;;20.87;54.74;101411.00;4948838;28;20473;-63
2023/10/11 00:32:47;;;;;;;6.07;3.50;;;;;;;20.86;54.89;101412.84;4948435;28;20070;-64
2023/10/11 00:35:19;;;;;;;7.43;4.10;;;;;;;20.87;55.02;101408.38;4948669;28;20035;-64
2023/10/11 00:37:49;;;;;;;7.13;3.92;;;;;;;20.84;54.87;101414.78;4948184;28;20035;-63
2023/10/11 00:40:24;;;;;;;6.15;3.55;;;;;;;20.85;54.69;101405.84;4948734;28;20050;-63
2023/10/11 00:42:50;;;;;;;6.13;3.83;;;;;;;20.87;54.88;101411.00;4948359;28;20404;-64
2023/10/11 00:45:16;;;;;;;6.57;3.80;;;;;;;20.84;54.79;101405.00;4948391;28;20032;-64
2023/10/11 00:47:45;;;;;;;6.95;3.55;;;;;;;20.86;54.96;101404.06;4948582;28;20064;-64
2023/10/11 00:50:14;;;;;;;7.10;3.90;;;;;;;20.85;55.03;101403.19;4948485;28;20062;-64
2023/10/11 00:52:42;;;;;;;6.95;3.70;;;;;;;20.85;54.84;101405.84;4948075;28;20126;-64
2023/10/11 00:55:16;;;;;;;6.93;3.75;;;;;;;20.84;54.89;101404.19;4946951;28;20025;-64
2023/10/11 00:57:43;;;;;;;7.90;3.72;;;;;;;20.84;54.76;101401.53;4948350;28;20046;-63
2023/10/11 01:00:13;;;;;;;8.13;3.95;;;;;;;20.83;54.26;101408.63;4948067;28;20105;-65
2023/10/11 01:02:38;;;;;;;6.53;3.67;;;;;;;20.84;54.83;101404.19;4947988;28;20055;-64
2023/10/11 01:05:06;;;;;;;8.18;4.22;;;;;;;20.83;54.55;101399.84;4947743;28;20035;-64
2023/10/11 01:07:32;;;;;;;6.57;4.05;;;;;;;20.84;54.43;101401.53;4947961;28;20118;-63
2023/10/11 01:09:57;;;;;;;7.60;4.00;;;;;;;20.83;54.70;101408.63;4945906;28;20110;-64
2023/10/11 01:12:22;;;;;;;6.80;3.92;;;;;;;20.82;54.37;101395.50;4946643;28;20571;-64
2023/10/11 01:14:57;;;;;;;7.53;3.92;;;;;;;20.83;54.76;101399.84;4946879;28;20039;-64
2023/10/11 01:17:23;;;;;;;7.50;4.10;;;;;;;20.83;54.48;101397.19;4947558;28;20091;-64
2023/10/11 01:19:51;;;;;;;6.65;3.90;;;;;;;20.82;54.45;101395.50;4948132;28;20419;-64
2023/10/11 01:22:20;;;;;;;8.13;4.03;;;;;;;20.81;54.65;101385.91;4947748;28;20547;-63
2023/10/11 01:24:47;;;;;;;8.98;4.18;;;;;;;20.80;54.30;101392.97;4947919;28;20043;-63
2023/10/11 01:27:13;;;;;;;6.93;4.10;;;;;;;20.82;54.13;101392.84;4947741;28;20476;-64
2023/10/11 01:29:43;;;;;;;7.00;4.35;;;;;;;20.81;54.21;101391.19;4948395;28;20031;-64
2023/10/11 01:32:09;;;;;;;8.10;4.28;;;;;;;20.81;54.38;101383.25;4947941;28;20059;-65
2023/10/11 01:34:35;;;;;;;6.18;3.90;;;;;;;20.79;54.53;101380.72;4946490;28;20591;-64
2023/10/11 01:37:01;;;;;;;7.60;4.13;;;;;;;20.80;54.37;101392.16;4950667;28;20122;-64
2023/10/11 01:39:26;;;;;;;6.72;3.95;;;;;;;20.79;54.49;101383.38;4952407;28;20065;-64
2023/10/11 01:41:54;;;;;;;7.30;4.10;;;;;;;20.79;54.15;101385.16;4951691;28;20077;-64
2023/10/11 01:44:22;;;;;;;5.22;3.60;;;;;;;20.79;54.15;101386.03;4951692;28;20416;-64
2023/10/11 01:46:48;;;;;;;6.88;4.10;;;;;;;20.78;54.16;101379.03;4944427;28;20031;-64
2023/10/11 01:49:14;;;;;;;7.13;3.95;;;;;;;20.78;54.07;101371.09;4951341;28;20430;-64
2023/10/11 01:51:46;;;;;;;7.38;3.90;;;;;;;20.77;54.34;101374.69;4951813;28;20607;-64
2023/10/11 01:54:12;;;;;;;6.85;3.83;;;;;;;20.78;54.12;101375.56;4951505;28;20047;-65
2023/10/11 01:56:38;;;;;;;6.72;3.72;;;;;;;20.77;54.03;101372.06;4951452;28;20054;-65
2023/10/11 01:59:04;;;;;;;6.88;4.18;;;;;;;20.77;54.00;101368.56;4951634;28;20126;-64
2023/10/11 02:01:38;;;;;;;7.90;3.92;;;;;;;20.76;54.31;101369.53;4951193;28;20028;-66
2023/10/11 02:04:10;;;;;;;7.78;3.90;;;;;;;20.77;54.34;101357.97;4951132;28;20276;-64
2023/10/11 02:06:38;;;;;;;6.68;3.85;;;;;;;20.76;54.32;101351.84;4951427;28;20035;-64
2023/10/11 02:09:04;;;;;;;7.68;4.22;;;;;;;20.76;53.98;101351.84;4951174;28;20496;-63
2023/10/11 02:11:29;;;;;;;8.18;4.10;;;;;;;20.76;54.14;101348.34;4951387;28;20033;-66
2023/10/11 02:13:59;;;;;;;6.90;3.97;;;;;;;20.76;54.25;101348.34;4951210;28;20535;-63
2023/10/11 02:16:32;;;;;;;7.43;3.60;;;;;;;20.75;54.09;101341.38;4950892;28;20032;-63
2023/10/11 02:19:00;;;;;;;7.47;4.35;;;;;;;20.76;54.01;101343.91;4950842;28;21038;-63
2023/10/11 02:21:29;;;;;;;8.43;3.80;;;;;;;20.76;53.95;101337.75;4950887;28;20400;-63
2023/10/11 02:23:56;;;;;;;7.35;3.78;;;;;;;20.74;53.88;101337.03;4950769;28;20039;-63
2023/10/11 02:26:29;;;;;;;8.15;3.72;;;;;;;20.75;54.22;101336.09;4950497;28;20492;-64
2023/10/11 02:28:54;;;;;;;6.82;3.80;;;;;;;20.74;54.08;101334.41;4950768;28;20059;-63
2023/10/11 02:31:20;;;;;;;7.00;3.47;;;;;;;20.74;54.12;101329.09;4949811;28;20046;-64
2023/10/11 02:33:45;;;;;;;6.65;3.53;;;;;;;20.74;53.89;101329.09;4950967;28;20318;-66
2023/10/11 02:36:17;;;;;;;6.97;4.28;;;;;;;20.73;54.06;101325.63;4950564;28;20038;-64
2023/10/11 02:38:50;;;;;;;6.72;3.97;;;;;;;20.74;54.15;101321.97;4950508;28;20046;-63
2023/10/11 02:41:25;;;;;;;6.50;3.80;;;;;;;20.72;53.77;101331.03;4933628;28;20032;-64
2023/10/11 02:43:57;;;;;;;8.18;3.92;;;;;;;20.73;53.88;101332.72;4942946;28;20088;-63
2023/10/11 02:46:24;;;;;;;6.20;4.28;;;;;;;20.73;53.69;101335.34;4950384;28;20389;-63
2023/10/11 02:48:54;;;;;;;7.63;4.05;;;;;;;20.72;54.03;101336.34;4950696;28;20034;-63
2023/10/11 02:51:24;;;;;;;7.72;4.28;;;;;;;20.72;53.92;101336.34;4950484;28;20039;-63
2023/10/11 02:53:52;;;;;;;6.13;3.75;;;;;;;20.72;53.67;101328.41;4942928;28;20082;-65
2023/10/11 02:56:17;;;;;;;7.05;3.50;;;;;;;20.72;54.00;101325.75;4950631;28;20023;-63
2023/10/11 02:58:43;;;;;;;6.28;3.70;;;;;;;20.71;54.11;101324.06;4950839;28;20113;-64
2023/10/11 03:01:14;;;;;;;6.68;3.97;;;;;;;20.72;53.95;101320.44;4950365;28;20045;-63
2023/10/11 03:03:43;;;;;;;7.25;3.88;;;;;;;20.70;54.04;101323.22;4950468;28;20047;-63
2023/10/11 03:06:09;;;;;;;7.75;3.78;;;;;;;20.72;54.00;101331.03;4950043;28;20039;-63
2023/10/11 03:08:37;;;;;;;6.45;3.67;;;;;;;20.71;53.90;101329.34;4950650;28;20067;-63
2023/10/11 03:11:04;;;;;;;6.90;3.83;;;;;;;20.71;53.83;101332.88;4950325;28;20432;-64
2023/10/11 03:13:31;;;;;;;6.47;4.00;;;;;;;20.71;53.85;101321.41;4950329;28;20035;-64
2023/10/11 03:15:59;;;;;;;8.10;4.15;;;;;;;20.70;53.83;101320.59;4949997;28;20059;-64
2023/10/11 03:18:29;;;;;;;7.22;3.80;;;;;;;20.70;53.99;101309.16;4950437;28;20051;-63
2023/10/11 03:21:38;;;;;;;7.85;4.05;;;;;;;20.70;53.97;101310.00;4932783;28;20039;-63
2023/10/11 03:23:49;;;;;;;7.13;4.05;;;;;;;20.70;53.84;101304.69;4944651;28;20130;-63
2023/10/11 03:29:00;;;;;;;6.82;4.30;;;;;;;20.70;53.67;101317.09;4942467;28;20142;-63
2023/10/11 03:31:30;;;;;;;7.45;4.10;;;;;;;20.69;53.70;101310.13;4949714;28;20027;-64
2023/10/11 03:33:56;;;;;;;7.57;4.00;;;;;;;20.69;53.69;101312.75;4949704;28;20321;-64
2023/10/11 03:36:28;;;;;;;6.97;4.22;;;;;;;20.68;53.85;101303.13;4950024;28;20050;-63
2023/10/11 03:38:54;;;;;;;8.80;3.88;;;;;;;20.69;53.73;101304.81;4943072;28;20031;-64
2023/10/11 03:41:27;;;;;;;7.80;4.03;;;;;;;20.67;53.88;101307.59;4949798;28;20403;-64
2023/10/11 03:43:54;;;;;;;7.05;4.13;;;;;;;20.68;53.93;101305.78;4942675;28;20035;-65
2023/10/11 03:46:25;;;;;;;6.82;3.75;;;;;;;20.67;53.71;101307.59;4949690;28;20044;-63
2023/10/11 03:49:02;;;;;;;7.90;4.20;;;;;;;20.67;53.99;101307.59;4942401;28;20038;-64
2023/10/11 03:51:28;;;;;;;6.03;3.50;;;;;;;20.67;53.72;101312.06;4949613;28;20035;-64
2023/10/11 03:53:53;;;;;;;6.97;3.55;;;;;;;20.67;54.08;101306.78;4949581;28;20027;-64
2023/10/11 03:56:19;;;;;;;7.22;4.13;;;;;;;20.67;54.04;101301.47;4949219;28;20047;-64
2023/10/11 03:58:44;;;;;;;7.45;3.90;;;;;;;20.64;53.55;101295.44;4949080;28;20050;-67
2023/10/11 04:03:43;;;;;;;7.90;3.80;;;;;;;20.65;53.78;101289.19;4949718;28;20042;-64
2023/10/11 04:06:15;;;;;;;6.57;3.77;;;;;;;20.65;53.83;101289.19;4949413;28;20031;-63
2023/10/11 04:08:48;;;;;;;6.95;4.10;;;;;;;20.63;53.83;101293.75;4948248;28;20273;-64
2023/10/11 04:11:22;;;;;;;6.70;3.53;;;;;;;20.63;53.76;101296.41;4949579;28;20122;-65
2023/10/11 04:13:49;;;;;;;6.80;3.90;;;;;;;20.64;53.76;101287.50;4941579;28;20031;-64
2023/10/11 04:16:18;;;;;;;8.48;4.32;;;;;;;20.65;53.98;101289.19;4948974;28;20130;-65
2023/10/11 04:18:44;;;;;;;10.43;4.00;;;;;;;20.64;53.83;101292.78;4948709;28;20179;-64
2023/10/11 04:23:39;;;;;;;6.07;3.60;;;;;;;20.64;53.83;101276.09;4948757;28;20077;-64
2023/10/11 04:26:08;;;;;;;6.05;3.85;;;;;;;20.63;53.65;101280.50;4948967;28;20108;-65
2023/10/11 04:28:34;;;;;;;8.35;4.15;;;;;;;20.62;53.94;101278.81;4949095;28;20042;-64
2023/10/11 04:33:50;;;;;;;7.50;4.20;;;;;;;20.63;53.86;101272.56;4949076;28;20494;-64
2023/10/11 04:36:20;;;;;;;7.07;3.90;;;;;;;20.63;53.85;101271.72;4948717;28;20437;-64
2023/10/11 04:38:47;;;;;;;5.93;4.50;;;;;;;20.63;53.99;101272.56;4948950;28;20034;-63
2023/10/11 04:41:16;;;;;;;6.53;4.28;;;;;;;20.60;53.92;101275.47;4948912;28;20031;-63
2023/10/11 04:43:50;;;;;;;7.05;4.20;;;;;;;20.61;54.23;101282.44;4949066;28;20037;-64
2023/10/11 04:46:21;;;;;;;7.85;3.63;;;;;;;20.62;54.00;101281.47;4948584;28;20071;-64
2023/10/11 04:48:48;;;;;;;7.60;4.03;;;;;;;20.61;53.78;101271.84;4940779;28;20035;-65
2023/10/11 04:51:24;;;;;;;6.50;4.00;;;;;;;20.61;53.64;101290.38;4948639;28;20046;-63
2023/10/11 04:56:51;;;;;;;6.70;3.90;;;;;;;20.61;54.06;101279.78;4945946;28;20543;-63
2023/10/11 05:04:26;;;;;;;6.43;3.70;;;;;;;20.60;53.84;101288.72;4947170;28;20031;-65
2023/10/11 05:06:53;;;;;;;8.10;4.28;;;;;;;20.60;53.82;101293.16;4939733;28;20320;-64
2023/10/11 05:11:44;;;;;;;6.18;3.70;;;;;;;20.59;53.65;101286.19;4948336;28;20133;-64
2023/10/11 05:16:59;;;;;;;6.32;3.97;;;;;;;20.57;53.65;101291.63;4949187;28;20053;-64
2023/10/11 05:19:28;;;;;;;6.00;3.72;;;;;;;20.56;54.00;101287.28;4947941;28;20054;-63
2023/10/11 05:21:55;;;;;;;7.38;4.03;;;;;;;20.57;53.85;101294.28;4954498;28;20094;-66
2023/10/11 05:24:44;;;;;;;7.50;3.97;;;;;;;20.57;54.12;101296.91;4947364;28;20031;-63
2023/10/11 05:33:41;;;;;;;8.73;4.63;;;;;;;20.54;54.65;101294.53;4948061;28;20521;-66
2023/10/11 05:52:14;;;;;;;8.25;3.60;;;;;;;20.57;54.79;101296.91;4947848;28;20156;-64
2023/10/11 05:54:42;;;;;;;7.10;4.30;;;;;;;20.58;55.01;101297.75;4947680;28;20032;-67
2023/10/11 05:57:08;;;;;;;7.40;4.32;;;;;;;20.58;54.96;101309.16;4946778;28;20043;-64
2023/10/11 05:59:37;;;;;;;6.72;3.75;;;;;;;20.60;54.92;101299.31;4947457;28;20043;-64
2023/10/11 06:02:18;;;;;;;6.43;4.20;;;;;;;20.60;54.64;101315.19;4946041;28;20097;-65
2023/10/11 06:04:47;;;;;;;7.35;3.90;;;;;;;20.60;54.94;101306.41;4945967;28;20134;-65
2023/10/11 06:07:15;;;;;;;6.82;4.00;;;;;;;20.59;55.04;101316.16;4947684;28;20033;-64
2023/10/11 06:09:46;;;;;;;6.38;3.65;;;;;;;20.60;55.06;101311.69;4947014;28;20035;-64
2023/10/11 06:12:23;;;;;;;6.40;4.10;;;;;;;20.60;54.88;101307.25;4947747;28;20396;-63
2023/10/11 06:14:53;;;;;;;7.93;4.13;;;;;;;20.58;55.21;101308.34;4939660;28;20043;-65
2023/10/11 06:17:41;;;;;;;5.95;3.97;;;;;;;20.57;55.54;101296.06;4947015;28;20078;-63
2023/10/11 06:20:27;;;;;;;7.32;3.72;;;;;;;20.62;55.24;101299.19;4942279;28;20065;-64
2023/10/11 06:22:56;;;;;;;9.68;4.22;;;;;;;20.63;55.10;101308.78;4949580;28;20039;-64
2023/10/11 06:28:09;;;;;;;8.55;3.90;;;;;;;20.64;55.46;101303.38;4950630;28;20511;-64
2023/10/11 06:30:35;;;;;;;7.80;4.57;;;;;;;20.64;55.17;101295.44;4947671;28;20057;-63
2023/10/11 06:33:05;;;;;;;8.38;4.40;;;;;;;20.64;55.72;101306.03;4949704;28;20535;-65
2023/10/11 06:35:30;;;;;;;6.35;3.80;;;;;;;20.65;55.18;101299.78;4951144;28;20031;-64
2023/10/11 06:37:56;;;;;;;6.80;4.03;;;;;;;20.66;55.68;101308.56;4950800;28;20090;-64
2023/10/11 06:40:47;;;;;;;7.25;4.03;;;;;;;20.65;55.36;101305.06;4951161;28;20039;-64
2023/10/11 06:43:13;;;;;;;7.97;3.90;;;;;;;20.67;55.78;101304.13;4946127;28;20077;-64
2023/10/11 06:45:41;;;;;;;8.18;3.88;;;;;;;20.67;55.62;101304.13;4950058;28;20031;-64
2023/10/11 06:48:13;;;;;;;7.57;4.20;;;;;;;20.64;55.45;101302.56;4949979;28;20046;-65
2023/10/11 06:50:38;;;;;;;7.28;3.63;;;;;;;20.67;55.69;101306.78;4950729;28;20039;-64
2023/10/11 06:53:08;;;;;;;8.25;3.85;;;;;;;20.68;55.72;101311.06;4950501;28;20660;-65
2023/10/11 06:55:35;;;;;;;8.18;4.07;;;;;;;20.67;55.69;101310.25;4950794;28;20468;-64
2023/10/11 06:58:08;;;;;;;8.15;4.10;;;;;;;20.67;55.58;101306.78;4949691;28;20042;-64
2023/10/11 07:00:37;;;;;;;7.38;4.20;;;;;;;20.66;55.78;101311.22;4946682;28;20436;-64
2023/10/11 07:03:07;;;;;;;6.45;3.88;;;;;;;20.64;55.80;101305.22;4950625;28;20049;-63
2023/10/11 07:05:40;;;;;;;7.65;4.38;;;;;;;20.64;55.40;101307.84;4950022;28;20031;-64
2023/10/11 07:08:09;;;;;;;6.25;4.00;;;;;;;20.65;55.56;101315.66;4949945;28;20061;-63
2023/10/11 07:10:35;;;;;;;6.72;3.88;;;;;;;20.67;55.64;101320.00;4950126;28;20081;-64
2023/10/11 07:13:03;;;;;;;8.93;4.32;;;;;;;20.65;55.77;101318.31;4948857;28;20067;-64
2023/10/11 07:15:40;;;;;;;8.18;4.25;;;;;;;20.64;55.78;101323.75;4947307;28;20035;-66
2023/10/11 07:18:08;;;;;;;7.85;3.85;;;;;;;20.65;55.46;101334.22;4968875;28;20058;-63
2023/10/11 07:20:48;;;;;;;8.02;3.90;;;;;;;20.66;55.64;101342.97;4949829;28;20114;-64
2023/10/11 07:23:21;;;;;;;9.30;4.20;;;;;;;20.67;55.83;101346.50;4949138;28;20023;-64
2023/10/11 07:25:48;;;;;;;8.57;4.00;;;;;;;20.68;55.77;101353.44;4948595;28;20387;-64
2023/10/11 07:28:18;;;;;;;7.50;4.13;;;;;;;20.68;55.85;101356.97;4949536;28;20027;-64
2023/10/11 07:30:44;;;;;;;7.63;4.00;;;;;;;20.68;55.67;101359.59;4949922;28;20035;-63
2023/10/11 07:33:12;;;;;;;10.90;4.20;;;;;;;20.68;55.90;101366.69;4949063;28;20090;-63
2023/10/11 07:35:44;;;;;;;6.80;4.43;;;;;;;20.69;55.90;101374.50;4949486;28;20094;-64
2023/10/11 07:38:09;;;;;;;6.50;3.80;;;;;;;20.71;55.79;101366.44;4947268;28;20459;-63
2023/10/11 07:40:45;;;;;;;8.18;4.05;;;;;;;20.69;55.81;101363.91;4947100;28;20027;-62
2023/10/11 07:43:16;;;;;;;7.75;4.70;;;;;;;20.59;56.02;101347.94;4954252;28;20222;-64
2023/10/11 07:45:47;;;;;;;9.48;4.30;;;;;;;20.52;56.68;101364.47;4949098;28;20053;-64
2023/10/11 07:48:16;;;;;;;7.35;4.10;;;;;;;20.44;56.46;101362.44;4931762;28;20070;-64
2023/10/11 07:50:42;;;;;;;8.50;3.97;;;;;;;20.39;56.98;101351.41;4947975;28;20066;-62
2023/10/11 07:53:13;;;;;;;7.38;4.18;;;;;;;20.35;56.83;101350.81;4947474;28;20035;-64
2023/10/11 07:55:40;;;;;;;7.45;4.18;;;;;;;20.31;57.07;101354.69;4948892;28;20038;-63
2023/10/11 07:58:08;;;;;;;8.23;3.70;;;;;;;20.35;56.81;101358.75;4948486;28;20031;-64
2023/10/11 08:00:33;;;;;;;8.68;4.53;;;;;;;20.35;56.89;101358.75;4948856;28;20373;-63
2023/10/11 08:03:05;;;;;;;7.68;4.10;;;;;;;20.34;56.93;101359.72;4948743;28;20042;-62
2023/10/11 08:05:44;;;;;;;6.47;3.70;;;;;;;20.34;57.06;101354.44;4947675;28;20031;-63
2023/10/11 08:08:13;;;;;;;12.13;4.18;;;;;;;20.35;56.88;101357.94;4948062;28;20031;-63
2023/10/11 08:10:44;;;;;;;9.55;4.38;;;;;;;20.30;56.79;101351.19;4947808;28;20027;-62
2023/10/11 08:13:23;;;;;;;8.25;4.20;;;;;;;20.29;57.07;101353.97;4948674;28;20118;-63
2023/10/11 08:15:59;;;;;;;6.82;4.32;;;;;;;20.29;57.12;101357.44;4940791;28;20118;-63
2023/10/11 08:18:26;;;;;;;8.20;4.30;;;;;;;20.33;57.07;101354.56;4946539;28;20055;-64
2023/10/11 08:20:52;;;;;;;7.28;3.60;;;;;;;20.34;57.16;101351.78;4945380;28;20046;-62
2023/10/11 08:23:28;;;;;;;9.55;4.22;;;;;;;20.36;57.07;101351.66;4946273;28;20050;-62
2023/10/11 08:25:55;;;;;;;7.95;4.10;;;;;;;20.35;57.23;101366.69;4946711;28;20464;-64
2023/10/11 08:28:28;;;;;;;8.15;4.03;;;;;;;20.36;57.34;101363.09;4947163;28;20039;-64
2023/10/11 08:30:57;;;;;;;12.32;4.38;;;;;;;20.37;57.38;101377.16;4948357;28;20031;-64
2023/10/11 08:33:30;;;;;;;8.05;4.20;;;;;;;20.37;57.13;101383.28;4947408;28;20093;-62
2023/10/11 08:35:56;;;;;;;8.68;4.10;;;;;;;20.37;57.15;101379.81;4947852;28;20027;-62
2023/10/11 08:38:24;;;;;;;11.30;4.18;;;;;;;20.38;57.03;101376.22;4948045;28;20039;-62
2023/10/11 08:40:57;;;;;;;8.07;3.97;;;;;;;20.39;57.44;101362.00;4948034;28;20479;-65
2023/10/11 08:43:23;;;;;;;9.50;3.70;;;;;;;20.39;57.09;101375.22;4948240;28;20114;-64
2023/10/11 08:45:50;;;;;;;9.30;4.53;;;;;;;20.40;57.26;101369.81;4928527;28;20161;-65
2023/10/11 08:48:17;;;;;;;12.23;4.88;;;;;;;20.40;57.18;101369.81;4947507;28;20036;-64
2023/10/11 08:50:53;;;;;;;7.85;3.95;;;;;;;20.42;57.35;101377.63;4947587;28;20069;-62
2023/10/11 08:53:24;;;;;;;8.13;4.30;;;;;;;20.45;57.31;101374.72;4946852;28;20106;-65
2023/10/11 08:55:56;;;;;;;8.52;4.05;;;;;;;20.45;57.35;101369.44;4946874;28;20027;-64
2023/10/11 08:58:27;;;;;;;8.10;3.80;;;;;;;20.46;57.24;101377.25;4947409;28;20039;-62
2023/10/11 09:00:55;;;;;;;6.43;4.10;;;;;;;20.46;57.38;101382.53;4940402;28;20082;-63
2023/10/11 09:03:23;;;;;;;8.75;4.40;;;;;;;20.46;57.45;101390.47;4945699;28;20038;-63
2023/10/11 09:05:58;;;;;;;11.18;4.35;;;;;;;20.50;57.27;101390.22;4940305;28;20031;-66
2023/10/11 09:08:31;;;;;;;7.40;3.80;;;;;;;20.50;57.52;101396.34;4943407;28;20377;-65
2023/10/11 09:11:28;;;;;;;9.40;4.50;;;;;;;20.52;57.60;101406.81;4947317;28;20039;-64
2023/10/11 09:14:08;;;;;;;13.02;4.35;;;;;;;20.48;57.19;101393.00;4947059;28;20075;-64
2023/10/11 09:16:37;;;;;;;7.10;4.00;;;;;;;20.47;57.64;101397.47;4947793;28;20034;-64
2023/10/11 09:19:09;;;;;;;7.85;4.13;;;;;;;20.48;57.36;101393.00;4946245;28;20083;-65
2023/10/11 09:21:35;;;;;;;7.82;4.30;;;;;;;20.65;57.15;101384.53;4946100;28;20063;-64
2023/10/11 09:24:25;;;;;;;7.22;3.90;;;;;;;20.79;56.62;101375.44;4947691;28;20082;-65
2023/10/11 09:27:18;;;;;;;7.05;4.28;;;;;;;20.88;56.63;101383.56;4938123;28;20491;-66
2023/10/11 09:29:46;;;;;;;7.50;4.05;;;;;;;20.95;56.27;101397.97;4947013;28;20137;-64
2023/10/11 09:32:13;;;;;;;8.32;4.25;;;;;;;20.97;56.11;101393.38;4947228;28;20040;-64
2023/10/11 09:34:41;;;;;;;10.82;4.55;;;;;;;21.01;56.15;101398.31;4944950;28;20030;-65
2023/10/11 09:37:11;;;;;;;10.30;4.68;;;;;;;21.02;56.14;101402.59;4945358;28;20046;-65
2023/10/11 09:39:46;;;;;;;8.93;4.65;;;;;;;21.02;56.40;101404.44;4947149;28;20082;-66
2023/10/11 09:42:13;;;;;;;10.10;4.80;;;;;;;21.03;56.00;101400.81;4947689;28;20082;-68
2023/10/11 09:44:46;;;;;;;8.32;4.32;;;;;;;21.04;56.32;101406.94;4946878;28;20522;-64
2023/10/11 09:47:18;;;;;;;7.78;5.20;;;;;;;21.05;56.18;101412.13;4947162;28;20035;-64
2023/10/11 09:49:47;;;;;;;8.32;5.20;;;;;;;21.04;56.15;101407.78;4947754;28;20493;-65
2023/10/11 09:52:16;;;;;;;7.82;4.65;;;;;;;21.05;56.24;101403.34;4947531;28;20039;-65
2023/10/11 09:54:42;;;;;;;12.00;5.32;;;;;;;21.05;56.54;101395.41;4948039;28;20106;-65
2023/10/11 09:57:33;;;;;;;8.32;4.85;;;;;;;21.03;56.52;101406.13;4950998;28;20035;-64
2023/10/11 10:00:14;;;;;;;8.38;5.15;;;;;;;21.04;56.37;101407.78;4952874;28;20102;-64
2023/10/11 10:02:44;;;;;;;8.85;4.95;;;;;;;21.06;56.24;101399.69;4949326;28;20030;-66
2023/10/11 10:05:10;;;;;;;8.60;5.00;;;;;;;21.05;56.57;101401.53;4951295;28;20031;-64
2023/10/11 10:10:06;;;;;;;10.40;5.85;;;;;;;21.04;56.45;101409.59;4950879;28;20558;-65
2023/10/11 10:12:34;;;;;;;8.75;5.72;;;;;;;21.01;57.04;101416.84;4951219;28;20035;-64
2023/10/11 10:15:02;;;;;;;9.65;5.80;;;;;;;21.03;57.25;101416.72;4951489;28;20071;-64
2023/10/11 10:17:28;;;;;;;9.02;5.85;;;;;;;21.04;56.80;101422.84;4950465;28;20476;-63
2023/10/11 10:19:59;;;;;;;10.85;5.32;;;;;;;21.04;56.68;101426.34;4950887;28;20079;-64
2023/10/11 10:22:27;;;;;;;11.52;5.97;;;;;;;21.07;56.80;101434.03;4951034;28;20035;-65
2023/10/11 10:24:56;;;;;;;9.07;5.57;;;;;;;21.07;56.90;101422.59;4948503;28;20140;-64
2023/10/11 10:27:33;;;;;;;15.00;6.70;;;;;;;21.02;57.02;101426.47;4949418;28;20058;-66
2023/10/11 10:30:00;;;;;;;12.55;6.50;;;;;;;21.01;57.00;101421.28;4950494;28;20024;-65
2023/10/11 10:32:26;;;;;;;12.23;6.90;;;;;;;21.01;56.59;101410.69;4950371;28;20054;-65
2023/10/11 10:35:19;;;;;;;9.38;6.07;;;;;;;21.04;56.91;101417.56;4950439;28;20480;-65
2023/10/11 10:37:47;;;;;;;11.55;6.80;;;;;;;21.06;56.80;101421.75;4948398;28;20043;-65
2023/10/11 10:40:26;;;;;;;11.00;6.38;;;;;;;21.03;56.93;101414.06;4946564;28;20042;-64
2023/10/11 10:43:07;;;;;;;10.13;6.38;;;;;;;21.06;57.32;101418.25;4950170;28;20373;-66
2023/10/11 10:45:35;;;;;;;11.05;6.57;;;;;;;21.05;57.01;101411.28;4950598;28;20047;-66
2023/10/11 10:48:23;;;;;;;16.67;7.22;;;;;;;21.02;57.57;101412.38;4950633;28;20031;-66
2023/10/11 10:50:52;;;;;;;14.05;7.18;;;;;;;20.99;57.90;101417.94;4941795;28;20043;-64
2023/10/11 10:53:20;;;;;;;13.63;7.30;;;;;;;20.99;57.75;101418.75;4948683;28;20035;-63
2023/10/11 10:55:57;;;;;;;11.73;6.23;;;;;;;21.01;57.35;101421.28;1542374;28;10021730;-67
2023/10/11 10:58:23;;;;;;;16.67;7.50;;;;;;;21.02;57.48;101420.31;2360032;28;10001206;-63
2023/10/11 11:00:54;;;;;;;13.77;6.87;;;;;;;21.01;57.76;101430.09;4894003;28;20047;-66
2023/10/11 11:03:22;;;;;;;19.05;7.22;;;;;;;21.04;57.55;101417.56;4953479;28;20641;-63
2023/10/11 11:05:58;;;;;;;12.43;6.93;;;;;;;21.02;57.51;101412.38;4940087;28;20082;-66
2023/10/11 11:08:27;;;;;;;13.48;7.35;;;;;;;21.00;58.00;101415.16;4946506;28;20031;-63
2023/10/11 11:11:19;;;;;;;13.68;7.82;;;;;;;20.83;58.36;101405.16;4948850;28;20126;-64
2023/10/11 11:13:49;;;;;;;12.75;7.38;;;;;;;20.75;58.91;101411.06;4948790;28;20035;-65
2023/10/11 11:16:26;;;;;;;13.63;8.68;;;;;;;20.68;59.08;101403.78;4948936;28;20031;-65
2023/10/11 11:18:52;;;;;;;11.73;7.40;;;;;;;20.66;59.11;101393.31;4949047;28;20138;-63
2023/10/11 11:21:25;;;;;;;11.90;7.25;;;;;;;20.62;59.09;101381.28;4949744;28;20063;-65
2023/10/11 11:23:52;;;;;;;16.75;7.97;;;;;;;20.60;59.23;101381.41;4941413;28;20073;-62
2023/10/11 11:26:21;;;;;;;16.33;7.50;;;;;;;20.57;59.47;101379.00;4949085;28;20042;-65
2023/10/11 11:28:48;;;;;;;10.75;6.97;;;;;;;20.57;59.20;101388.72;4949466;28;20038;-66
2023/10/11 11:31:13;;;;;;;13.15;7.65;;;;;;;20.55;59.51;101390.69;4949132;28;20031;-65
2023/10/11 11:36:42;;;;;;;13.05;6.75;;;;;;;20.55;59.44;101374.78;1800824;28;10022737;-62
2023/10/11 11:39:26;;;;;;;10.80;7.28;;;;;;;20.55;59.53;101369.50;3583118;28;10001031;-62
2023/10/11 11:41:53;;;;;;;12.48;7.65;;;;;;;20.54;59.56;101366.03;4941727;28;21284;-63
2023/10/11 11:44:23;;;;;;;11.63;6.78;;;;;;;20.54;59.36;101359.91;4948900;28;20043;-63
2023/10/11 11:46:53;;;;;;;11.55;6.82;;;;;;;20.55;59.75;101349.16;4948820;28;20045;-62
2023/10/11 11:49:23;;;;;;;12.52;7.72;;;;;;;20.55;59.20;101337.72;4931600;28;20039;-64
2023/10/11 11:51:54;;;;;;;11.32;7.00;;;;;;;20.57;59.54;101344.59;4941364;28;20480;-63
2023/10/11 11:54:21;;;;;;;10.18;7.28;;;;;;;20.59;59.58;101344.44;4948519;28;20543;-63
2023/10/11 11:56:47;;;;;;;24.05;7.60;;;;;;;20.58;59.52;101346.25;4948344;28;20373;-65
2023/10/11 11:59:17;;;;;;;10.75;6.95;;;;;;;20.56;59.76;101342.88;4948859;28;20039;-61
2023/10/11 12:01:53;;;;;;;12.55;7.55;;;;;;;20.56;59.73;101352.66;4948401;28;20042;-62
2023/10/11 12:04:20;;;;;;;12.93;7.40;;;;;;;20.57;59.39;101343.72;4968114;28;20062;-61
2023/10/11 12:06:48;;;;;;;11.07;7.20;;;;;;;20.71;59.15;101339.94;4947550;28;20146;-67
2023/10/11 12:09:17;;;;;;;12.93;7.43;;;;;;;20.88;58.94;101320.81;4947392;28;20029;-65
2023/10/11 12:11:45;;;;;;;10.43;6.93;;;;;;;21.01;58.52;101310.00;4949498;28;20042;-64
2023/10/11 12:14:12;;;;;;;12.20;7.28;;;;;;;21.08;58.03;101297.91;4948749;28;20045;-65
2023/10/11 12:16:42;;;;;;;10.27;6.65;;;;;;;21.10;57.82;101308.38;4947873;28;20066;-64
2023/10/11 12:19:11;;;;;;;9.13;6.78;;;;;;;21.13;57.46;101293.03;4948555;28;20102;-64
2023/10/11 12:21:36;;;;;;;13.75;7.35;;;;;;;21.13;58.14;101293.03;4949011;28;20039;-65
2023/10/11 12:24:10;;;;;;;12.68;6.78;;;;;;;21.15;58.09;101291.09;4949526;28;20494;-66
2023/10/11 12:26:35;;;;;;;10.13;6.78;;;;;;;21.19;57.48;101295.16;4948648;28;20480;-66
2023/10/11 12:29:04;;;;;;;9.18;6.57;;;;;;;21.21;57.49;101297.69;4949333;28;20035;-65
2023/10/11 12:31:29;;;;;;;11.98;6.95;;;;;;;21.20;57.58;101288.91;4949148;28;20114;-64